Terminal Aerodrome Forecast
Issued by NWS Albuquerque, NM

Home | Current Version | Previous Version | Text Only | Print | Product List | Glossary On
Versions: 1 2 3 4 5 6 7 8 9 10 11 12 13 14 15 16
000
FTUS45 KABQ 230100 AAA
TAFABQ
TAF AMD
KABQ 230145Z 2302/2324 10012G22KT P6SM VCTS BKN100CB
      TEMPO 2302/2304 VRB15G30KT -TSRA BKN080CB
     FM230400 09011KT P6SM VCSH SCT090 SCT150
     FM230600 06006KT P6SM SCT090 SCT200
     FM231900 15011KT P6SM BKN100=

USA.gov is the U.S. government's official web portal to all federal, state and local government web resources and services.